Time;durP1;ratioP1;P1;durP2;ratioP2;P2;SDS_P1;SDS_P2;PMS_P1;PMS_P2;Temp;Humidity;BMP_temperature;BMP_pressure;BME280_temperature;BME280_humidity;BME280_pressure;Samples;Min_cycle;Max_cycle;Signal;HPM_P1;HPM_P2
2022/02/12 00:01:03;;;;;;;;;37.75;33.25;;;;;-147.17;91.65;50566.47;4992547;28;51378;-60
2022/02/12 00:03:28;;;;;;;;;41.50;37.75;;;;;-147.17;91.99;50572.38;4993163;28;51181;-62
2022/02/12 00:05:53;;;;;;;;;35.75;33.25;;;;;-147.17;92.10;50572.38;4992769;28;51763;-61
2022/02/12 00:08:19;;;;;;;;;29.75;29.00;;;;;-147.17;92.23;50538.91;4992554;28;51164;-61
2022/02/12 00:10:44;;;;;;;;;30.75;30.00;;;;;-147.17;92.12;50566.47;4991835;28;52229;-62
2022/02/12 00:13:11;;;;;;;;;31.50;29.75;;;;;-147.17;91.84;50544.81;4992092;28;50984;-62
2022/02/12 00:15:37;;;;;;;;;33.00;31.00;;;;;-147.17;92.11;50546.78;4970306;28;51380;-62
2022/02/12 00:18:04;;;;;;;;;26.00;25.25;;;;;-147.17;92.28;50603.88;4992379;28;50992;-61
2022/02/12 00:20:29;;;;;;;;;40.25;33.50;;;;;-147.17;92.20;50582.22;4994284;28;51553;-61
2022/02/12 00:22:55;;;;;;;;;27.00;27.00;;;;;-147.17;92.47;50578.28;4995153;28;51117;-61
2022/02/12 00:25:20;;;;;;;;;24.00;23.50;;;;;-147.17;92.61;50544.81;4991817;28;51048;-61
2022/02/12 00:27:45;;;;;;;;;29.25;28.00;;;;;-147.17;92.88;50556.63;4992888;28;51090;-61
2022/02/12 00:30:11;;;;;;;;;38.50;35.25;;;;;-147.17;93.06;50554.66;4992156;28;51941;-61
2022/02/12 00:32:37;;;;;;;;;26.75;25.50;;;;;-147.17;93.21;50550.72;4991973;28;51010;-61
2022/02/12 00:35:03;;;;;;;;;23.75;23.00;;;;;-147.17;93.08;50568.44;4990423;28;51336;-62
2022/02/12 00:37:30;;;;;;;;;26.50;25.00;;;;;-147.17;92.71;50570.41;4991765;28;51168;-62
2022/02/12 00:39:56;;;;;;;;;31.00;30.75;;;;;-147.17;93.11;50552.69;4991788;28;51844;-60
2022/02/12 00:42:22;;;;;;;;;31.75;30.00;;;;;-147.17;93.08;50552.69;4991206;28;50989;-62
2022/02/12 00:44:48;;;;;;;;;33.75;30.25;;;;;-147.17;93.63;50505.44;4992722;28;51277;-62
2022/02/12 00:47:13;;;;;;;;;27.00;26.00;;;;;-147.17;93.76;50538.91;4992459;28;51237;-61
2022/02/12 00:49:39;;;;;;;;;38.75;36.25;;;;;-147.17;93.91;50548.75;4974246;28;52375;-63
2022/02/12 00:52:05;;;;;;;;;34.75;29.25;;;;;-147.17;94.52;50552.69;4991643;28;51202;-61
2022/02/12 00:54:32;;;;;;;;;35.00;31.00;;;;;-147.17;94.48;50536.94;4993220;28;51166;-60
2022/02/12 00:56:58;;;;;;;;;29.00;28.50;;;;;-147.17;94.51;50538.91;4991462;28;51357;-61
2022/02/12 00:59:23;;;;;;;;;31.00;29.50;;;;;-147.17;94.65;50531.03;4991825;28;51858;-61
2022/02/12 01:01:49;;;;;;;;;21.00;17.50;;;;;-147.17;95.02;50554.66;4974208;28;51163;-62
2022/02/12 01:04:15;;;;;;;;;29.75;22.50;;;;;-147.17;96.83;50531.03;4991016;28;51055;-62
2022/02/12 01:06:40;;;;;;;;;33.50;32.50;;;;;-147.17;95.96;50546.78;4991680;28;51023;-62
2022/02/12 01:09:05;;;;;;;;;30.25;27.50;;;;;-147.17;96.39;50533.00;4992524;28;51044;-61
2022/02/12 01:11:31;;;;;;;;;32.75;30.25;;;;;-147.17;96.24;50509.38;4991189;28;50878;-62
2022/02/12 01:13:56;;;;;;;;;23.25;20.00;;;;;-147.17;96.49;50536.94;4974098;28;51207;-61
2022/02/12 01:16:22;;;;;;;;;29.00;28.00;;;;;-147.17;97.14;50529.06;4968630;28;51428;-61
2022/02/12 01:18:47;;;;;;;;;29.00;26.25;;;;;-147.17;96.46;50525.13;4990801;28;52084;-63
2022/02/12 01:21:13;;;;;;;;;30.00;28.75;;;;;-147.17;96.72;50525.13;4991316;28;50973;-62
2022/02/12 01:23:38;;;;;;;;;35.75;32.75;;;;;-147.17;96.96;50529.06;4991483;28;51194;-63
2022/02/12 01:26:04;;;;;;;;;28.25;26.50;;;;;-147.17;97.04;50517.25;4973878;28;51173;-61
2022/02/12 01:28:29;;;;;;;;;32.25;28.75;;;;;-147.17;97.25;50511.34;4978806;28;51958;-61
2022/02/12 01:30:55;;;;;;;;;31.50;30.25;;;;;-147.17;97.25;50497.56;4995490;28;50996;-61
2022/02/12 01:33:21;;;;;;;;;25.25;24.50;;;;;-147.17;97.14;50533.00;4993841;28;50949;-61
2022/02/12 01:35:46;;;;;;;;;29.25;28.75;;;;;-147.17;97.60;50493.63;4976674;28;51354;-63
2022/02/12 01:38:11;;;;;;;;;29.25;27.50;;;;;-147.17;97.07;50505.44;4988592;28;51759;-62
2022/02/12 01:40:37;;;;;;;;;23.00;22.75;;;;;-147.17;96.81;50487.72;4972138;28;51062;-61
2022/02/12 01:43:02;;;;;;;;;26.00;25.00;;;;;-147.17;97.04;50538.91;4994553;28;51130;-61
2022/02/12 01:45:30;;;;;;;;;25.50;22.50;;;;;-147.17;97.02;50560.56;4977394;28;51124;-62
2022/02/12 01:47:55;;;;;;;;;19.50;18.25;;;;;-147.17;97.04;50493.63;4994564;28;51739;-62
2022/02/12 01:50:20;;;;;;;;;27.00;22.25;;;;;-147.17;96.72;50517.25;4994413;28;51170;-61
2022/02/12 01:52:47;;;;;;;;;23.75;19.25;;;;;-147.17;97.69;50509.38;4993606;28;50976;-62
2022/02/12 01:55:12;;;;;;;;;20.75;19.75;;;;;-147.17;96.59;50536.94;4977923;28;51129;-61
2022/02/12 01:57:38;;;;;;;;;22.25;20.50;;;;;-147.17;97.35;50517.25;4971354;28;52779;-61
2022/02/12 02:00:08;;;;;;;;;21.00;17.75;;;;;-147.17;97.38;50511.34;4976777;28;51081;-61
2022/02/12 02:02:33;;;;;;;;;27.25;21.75;;;;;-147.17;96.99;50509.38;4977124;28;50966;-61
2022/02/12 02:04:59;;;;;;;;;23.75;19.75;;;;;-147.17;97.31;50529.06;4994270;28;51305;-61
2022/02/12 02:07:24;;;;;;;;;20.00;19.75;;;;;-147.17;97.40;50523.16;4994497;28;51403;-61
2022/02/12 02:09:51;;;;;;;;;26.00;23.00;;;;;-147.17;97.56;50525.13;4994286;28;50974;-60
2022/02/12 02:12:16;;;;;;;;;29.00;22.25;;;;;-147.17;97.62;50511.34;4994132;28;51215;-61
2022/02/12 02:14:42;;;;;;;;;24.75;22.00;;;;;-147.17;97.45;50544.81;4993722;28;50885;-62
2022/02/12 02:17:09;;;;;;;;;22.25;19.50;;;;;-147.17;96.99;50548.75;4995133;28;51239;-62
2022/02/12 02:19:35;;;;;;;;;18.75;18.25;;;;;-147.17;96.66;50501.50;4987554;28;51072;-62
2022/02/12 02:22:02;;;;;;;;;24.75;22.25;;;;;-147.17;96.63;50493.63;4995331;28;51124;-62
2022/02/12 02:24:28;;;;;;;;;19.75;18.75;;;;;-147.17;96.45;50525.13;4960092;28;51358;-62
2022/02/12 02:27:09;;;;;;;;;20.50;18.25;;;;;-147.17;96.61;50509.38;4994208;28;51051;-62
2022/02/12 02:29:37;;;;;;;;;14.50;14.50;;;;;-147.17;97.10;50517.25;4985456;28;51018;-62
2022/02/12 02:32:03;;;;;;;;;20.75;18.25;;;;;-147.17;97.29;50531.03;4992652;28;51178;-62
2022/02/12 02:34:28;;;;;;;;;21.00;19.25;;;;;-147.17;97.64;50523.16;4994256;28;51195;-62
2022/02/12 02:36:54;;;;;;;;;19.50;18.75;;;;;-147.17;97.10;50521.19;4993275;28;52044;-62
2022/02/12 02:39:20;;;;;;;;;21.75;21.50;;;;;-147.17;97.07;50503.47;4991505;28;50956;-62
2022/02/12 02:41:45;;;;;;;;;20.00;19.00;;;;;-147.17;96.72;50540.88;4993440;28;51026;-62
2022/02/12 02:44:11;;;;;;;;;18.75;18.75;;;;;-147.17;96.64;50529.06;4994462;28;51114;-62
2022/02/12 02:46:36;;;;;;;;;17.25;16.00;;;;;-147.17;96.45;50527.09;4992918;28;52049;-62
2022/02/12 02:49:02;;;;;;;;;22.50;19.75;;;;;-147.17;97.10;50525.13;4992968;28;50957;-62
2022/02/12 02:56:55;;;;;;;;;22.25;21.00;;;;;-147.17;96.77;50513.31;4993771;28;50947;-61
2022/02/12 02:59:20;;;;;;;;;17.50;17.00;;;;;-147.17;97.57;50533.00;4993432;28;50854;-62
2022/02/12 03:01:52;;;;;;;;;19.75;18.00;;;;;-147.17;97.59;50525.13;4974290;28;51276;-62
2022/02/12 03:04:18;;;;;;;;;25.50;21.50;;;;;-147.17;97.79;50525.13;4995580;28;51092;-62
2022/02/12 03:06:44;;;;;;;;;22.00;19.75;;;;;-147.17;97.44;50513.31;4993414;28;50908;-62
2022/02/12 03:09:09;;;;;;;;;23.25;22.75;;;;;-147.17;97.45;50507.41;4993286;28;51018;-62
2022/02/12 03:11:34;;;;;;;;;17.00;13.25;;;;;-147.17;97.47;50525.13;4993227;28;51100;-62
2022/02/12 03:14:00;;;;;;;;;23.25;20.75;;;;;-147.17;97.48;50505.44;4994189;28;51360;-62
2022/02/12 03:16:25;;;;;;;;;25.50;23.25;;;;;-147.17;97.96;50481.81;4991538;28;52092;-62
2022/02/12 03:18:51;;;;;;;;;23.50;19.75;;;;;-147.17;98.16;50505.44;4974945;28;51183;-61
2022/02/12 03:21:17;;;;;;;;;20.75;20.75;;;;;-147.17;97.97;50540.88;4994379;28;51221;-63
2022/02/12 03:23:43;;;;;;;;;18.00;17.00;;;;;-147.17;98.74;50493.63;4993579;28;51037;-62
2022/02/12 03:26:09;;;;;;;;;24.75;22.75;;;;;-147.17;98.72;50513.31;4993508;28;52006;-60
2022/02/12 03:28:34;;;;;;;;;18.75;17.00;;;;;-147.17;99.31;50501.50;4991432;28;51398;-63
2022/02/12 03:31:00;;;;;;;;;18.25;17.25;;;;;-147.17;99.44;50495.59;4993492;28;51176;-63
2022/02/12 03:33:25;;;;;;;;;21.50;20.50;;;;;-147.17;99.33;50509.38;4975475;28;51305;-62
2022/02/12 03:35:53;;;;;;;;;22.00;19.50;;;;;-147.17;99.31;50497.56;4993214;28;51363;-62
2022/02/12 03:38:21;;;;;;;;;23.75;21.00;;;;;-147.17;99.52;50523.16;4995204;28;51331;-61
2022/02/12 03:40:49;;;;;;;;;21.00;21.00;;;;;-147.17;99.75;50499.53;4992017;28;51256;-60
2022/02/12 03:43:16;;;;;;;;;23.75;23.00;;;;;-147.17;99.14;50481.81;4975058;28;51323;-61
2022/02/12 03:45:42;;;;;;;;;23.75;22.25;;;;;-147.17;99.20;50517.25;4993323;28;51847;-61
2022/02/12 03:48:08;;;;;;;;;22.00;20.25;;;;;-147.17;99.56;50501.50;4992867;28;51186;-61
2022/02/12 03:50:35;;;;;;;;;20.25;17.50;;;;;-147.17;100.00;50499.53;4992103;28;50877;-61
2022/02/12 03:53:03;;;;;;;;;27.50;25.25;;;;;-147.17;100.00;50501.50;4995245;28;51090;-61
2022/02/12 03:55:29;;;;;;;;;24.00;21.00;;;;;-147.17;99.65;50521.19;4992420;28;51865;-61
2022/02/12 03:57:57;;;;;;;;;19.00;17.00;;;;;-147.17;99.78;50523.16;4985188;28;51250;-61
2022/02/12 04:00:23;;;;;;;;;21.50;21.00;;;;;-147.17;99.32;50501.50;4991447;28;51236;-61
2022/02/12 04:02:48;;;;;;;;;20.25;19.50;;;;;-147.17;98.60;50523.16;4973811;28;50981;-61
2022/02/12 04:05:15;;;;;;;;;19.75;17.75;;;;;-147.17;99.92;50493.63;4992734;28;51308;-61
2022/02/12 04:07:44;;;;;;;;;14.00;14.00;;;;;-147.17;99.44;50513.31;4972362;28;51146;-62
2022/02/12 04:10:12;;;;;;;;;18.25;18.25;;;;;-147.17;99.60;50477.88;4992027;28;51134;-61
2022/02/12 04:12:38;;;;;;;;;16.00;13.75;;;;;-147.17;99.76;50527.09;4992781;28;51304;-62
2022/02/12 04:15:04;;;;;;;;;10.00;10.00;;;;;-147.17;100.00;50473.94;4992697;28;52248;-62
2022/02/12 04:17:34;;;;;;;;;14.75;12.50;;;;;-147.17;100.00;50505.44;4992099;28;51239;-62
2022/02/12 04:20:05;;;;;;;;;10.50;8.50;;;;;-147.17;99.99;50495.59;4990553;28;51499;-62
2022/02/12 04:22:32;;;;;;;;;11.50;10.50;;;;;-147.17;100.00;50477.88;4991996;28;50924;-62
2022/02/12 04:24:58;;;;;;;;;13.50;13.00;;;;;-147.17;100.00;50497.56;4990564;28;52927;-62
2022/02/12 04:27:23;;;;;;;;;12.00;12.00;;;;;-147.17;100.00;50499.53;4993601;28;51101;-61
2022/02/12 04:29:49;;;;;;;;;12.25;11.00;;;;;-147.17;100.00;50523.16;4992207;28;51204;-61
2022/02/12 04:32:14;;;;;;;;;13.50;12.00;;;;;-147.17;100.00;50493.63;4986558;28;51511;-61
2022/02/12 04:34:39;;;;;;;;;17.25;16.00;;;;;-147.17;100.00;50507.41;4963998;28;53320;-61
2022/02/12 04:37:05;;;;;;;;;13.00;12.00;;;;;-147.17;100.00;50511.34;4991666;28;51015;-61
2022/02/12 04:39:30;;;;;;;;;10.00;10.00;;;;;-147.17;100.00;50509.38;4974439;28;51293;-61
2022/02/12 04:41:55;;;;;;;;;10.50;9.75;;;;;-147.17;100.00;50473.94;4993144;28;51209;-62
2022/02/12 04:44:21;;;;;;;;;12.25;10.25;;;;;-147.17;100.00;50473.94;4988596;28;51611;-62
2022/02/12 04:46:46;;;;;;;;;16.00;13.50;;;;;-147.17;100.00;50470.00;4991294;28;51064;-61
2022/02/12 04:49:11;;;;;;;;;12.25;8.75;;;;;-147.17;100.00;50501.50;4992763;28;50960;-62
2022/02/12 04:51:38;;;;;;;;;10.00;9.50;;;;;-147.17;100.00;50499.53;4996618;28;51161;-61
2022/02/12 04:54:04;;;;;;;;;12.00;12.00;;;;;-147.17;100.00;50503.47;4993514;28;51745;-61
2022/02/12 04:56:29;;;;;;;;;12.25;12.00;;;;;-147.17;100.00;50509.38;4993224;28;50957;-61
2022/02/12 04:58:54;;;;;;;;;11.50;9.25;;;;;-147.17;100.00;50509.38;4994174;28;51038;-62
2022/02/12 05:01:20;;;;;;;;;11.00;11.00;;;;;-147.17;100.00;50509.38;4992865;28;51306;-62
2022/02/12 05:03:49;;;;;;;;;9.50;9.50;;;;;-147.17;100.00;50497.56;4993546;28;50976;-61
2022/02/12 05:06:16;;;;;;;;;10.00;9.00;;;;;-147.17;100.00;50505.44;4995996;28;51083;-62
2022/02/12 05:08:41;;;;;;;;;12.75;12.50;;;;;-147.17;100.00;50499.53;4995076;28;51128;-61
2022/02/12 05:11:07;;;;;;;;;10.00;9.25;;;;;-147.17;100.00;50513.31;4996391;28;51280;-61
2022/02/12 05:13:32;;;;;;;;;8.75;8.00;;;;;-147.17;100.00;50481.81;4994719;28;52022;-61
2022/02/12 05:15:57;;;;;;;;;8.00;7.75;;;;;-147.17;100.00;50513.31;4995652;28;51099;-61
2022/02/12 05:18:23;;;;;;;;;9.25;9.00;;;;;-147.17;100.00;50525.13;4994455;28;51801;-62
2022/02/12 05:20:48;;;;;;;;;8.00;8.00;;;;;-147.17;100.00;50505.44;4994711;28;51314;-62
2022/02/12 05:23:14;;;;;;;;;12.50;10.00;;;;;-147.17;100.00;50511.34;4977382;28;53031;-62
2022/02/12 05:25:40;;;;;;;;;8.50;8.50;;;;;-147.17;100.00;50485.75;4996018;28;50988;-61
2022/02/12 05:28:05;;;;;;;;;12.00;9.75;;;;;-147.17;100.00;50503.47;4995891;28;51235;-61
2022/02/12 05:30:31;;;;;;;;;9.00;8.25;;;;;-147.17;100.00;50509.38;4977526;28;51346;-61
2022/02/12 05:32:58;;;;;;;;;11.75;9.75;;;;;-147.17;100.00;50503.47;4977228;28;53825;-63
2022/02/12 05:35:23;;;;;;;;;10.00;8.50;;;;;-147.17;100.00;50505.44;4994228;28;51194;-62
2022/02/12 05:37:49;;;;;;;;;10.00;9.00;;;;;-147.17;100.00;50517.25;4994908;28;51068;-61
2022/02/12 05:40:14;;;;;;;;;9.25;8.00;;;;;-147.17;100.00;50509.38;4994055;28;51058;-62
2022/02/12 05:42:39;;;;;;;;;9.75;9.00;;;;;-147.17;100.00;50509.38;4995182;28;51840;-62
2022/02/12 05:45:05;;;;;;;;;8.50;8.50;;;;;-147.17;100.00;50507.41;4993915;28;51424;-60
2022/02/12 05:47:30;;;;;;;;;5.00;4.00;;;;;-147.17;100.00;50473.94;4994845;28;51062;-62
2022/02/12 05:49:56;;;;;;;;;6.50;5.00;;;;;-147.17;100.00;50485.75;4996592;28;51134;-63
2022/02/12 05:52:21;;;;;;;;;7.50;5.75;;;;;-147.17;100.00;50473.94;4994523;28;52439;-61
2022/02/12 05:54:46;;;;;;;;;8.25;7.25;;;;;-147.17;100.00;50493.63;4977227;28;51684;-62
2022/02/12 05:57:11;;;;;;;;;6.00;6.00;;;;;-147.17;100.00;50529.06;4994449;28;51236;-62
2022/02/12 05:59:37;;;;;;;;;9.00;8.25;;;;;-147.17;100.00;50489.69;4963533;28;51019;-61
2022/02/12 06:02:02;;;;;;;;;10.75;8.75;;;;;-147.17;100.00;50505.44;4993942;28;51625;-60
2022/02/12 06:04:28;;;;;;;;;11.00;9.75;;;;;-147.17;100.00;50489.69;4993611;28;51267;-60
2022/02/12 06:06:53;;;;;;;;;11.75;10.00;;;;;-147.17;100.00;50505.44;4994038;28;50948;-61
2022/02/12 06:09:18;;;;;;;;;8.25;8.00;;;;;-147.17;100.00;50505.44;4994506;28;51185;-61
2022/02/12 06:11:44;;;;;;;;;8.75;8.75;;;;;-147.17;100.00;50538.91;4995036;28;51181;-61
2022/02/12 06:14:09;;;;;;;;;11.50;11.00;;;;;-147.17;100.00;50497.56;4993705;28;51091;-61
2022/02/12 06:16:34;;;;;;;;;8.00;8.00;;;;;-147.17;100.00;50497.56;4993694;28;51013;-61
2022/02/12 06:19:00;;;;;;;;;11.00;8.75;;;;;-147.17;100.00;50517.25;4995996;28;50869;-61
2022/02/12 06:21:25;;;;;;;;;9.00;8.75;;;;;-147.17;100.00;50515.28;4984615;28;51761;-62
2022/02/12 06:23:51;;;;;;;;;11.50;9.25;;;;;-147.17;100.00;50505.44;4991503;28;51032;-62
2022/02/12 06:26:16;;;;;;;;;12.25;11.00;;;;;-147.17;100.00;50481.81;4993969;28;51054;-62
2022/02/12 06:28:41;;;;;;;;;12.25;11.75;;;;;-147.17;100.00;50521.19;4995267;28;51056;-61
2022/02/12 06:31:07;;;;;;;;;9.50;8.25;;;;;-147.17;100.00;50497.56;4976120;28;53306;-61
2022/02/12 06:33:32;;;;;;;;;9.50;9.25;;;;;-147.17;100.00;50470.00;4992998;28;51157;-61
2022/02/12 06:35:58;;;;;;;;;12.25;10.25;;;;;-147.17;100.00;50505.44;4994642;28;51035;-62
2022/02/12 06:38:23;;;;;;;;;12.00;11.50;;;;;-147.17;100.00;50464.09;4994676;28;51124;-63
2022/02/12 06:40:49;;;;;;;;;13.00;12.00;;;;;-147.17;100.00;50503.47;4993326;28;51959;-61
2022/02/12 06:43:14;;;;;;;;;13.25;11.75;;;;;-147.17;100.00;50495.59;4994399;28;51112;-61
2022/02/12 06:45:40;;;;;;;;;12.50;10.00;;;;;-147.17;100.00;50513.31;4980218;28;51125;-61
2022/02/12 06:48:06;;;;;;;;;5.75;5.75;;;;;-147.17;100.00;50481.81;4993321;28;51309;-61
2022/02/12 06:50:32;;;;;;;;;11.00;10.50;;;;;-147.17;100.00;50501.50;4986349;28;51352;-61
2022/02/12 06:52:58;;;;;;;;;11.75;9.75;;;;;-147.17;100.00;50497.56;4989966;28;51161;-62
2022/02/12 06:55:24;;;;;;;;;8.25;8.25;;;;;-147.17;100.00;50468.03;4993079;28;51031;-61
2022/02/12 06:57:50;;;;;;;;;12.00;11.00;;;;;-147.17;100.00;50513.31;4987558;28;51348;-62
2022/02/12 07:00:17;;;;;;;;;12.00;10.25;;;;;-147.17;100.00;50505.44;4991060;28;51256;-62
2022/02/12 07:02:42;;;;;;;;;11.75;8.00;;;;;-147.17;100.00;50495.59;4977788;28;51217;-62
2022/02/12 07:05:07;;;;;;;;;11.75;10.25;;;;;-147.17;100.00;50501.50;4993077;28;50977;-62
2022/02/12 07:07:42;;;;;;;;;9.50;8.75;;;;;-147.17;100.00;50485.75;4992599;28;51086;-61
2022/02/12 07:10:08;;;;;;;;;12.50;12.50;;;;;-147.17;100.00;50505.44;4959210;28;52693;-62
2022/02/12 07:12:34;;;;;;;;;9.50;9.25;;;;;-147.17;100.00;50485.75;4993050;28;51113;-63
2022/02/12 07:14:59;;;;;;;;;10.25;10.25;;;;;-147.17;100.00;50481.81;4993127;28;51550;-62
2022/02/12 07:17:24;;;;;;;;;16.25;16.25;;;;;-147.17;100.00;50491.66;4993539;28;51500;-62
2022/02/12 07:19:50;;;;;;;;;9.75;9.75;;;;;-147.17;100.00;50473.94;4993991;28;51286;-62
2022/02/12 07:22:15;;;;;;;;;12.00;11.25;;;;;-147.17;100.00;50462.13;4992869;28;51127;-61
2022/02/12 07:24:41;;;;;;;;;14.00;13.00;;;;;-147.17;100.00;50475.91;4992675;28;52167;-63
2022/02/12 07:27:06;;;;;;;;;12.75;12.00;;;;;-147.17;100.00;50485.75;4992356;28;51160;-62
2022/02/12 07:29:32;;;;;;;;;12.50;10.25;;;;;-147.17;100.00;50499.53;4984538;28;51805;-62
2022/02/12 07:31:57;;;;;;;;;12.75;12.00;;;;;-147.17;100.00;50483.78;4992910;28;51004;-62
2022/02/12 07:34:24;;;;;;;;;9.50;5.75;;;;;-147.17;100.00;50450.31;4992044;28;51171;-62
2022/02/12 07:36:49;;;;;;;;;15.75;15.00;;;;;-147.17;100.00;50497.56;4995130;28;51317;-62
2022/02/12 07:39:15;;;;;;;;;12.50;12.25;;;;;-147.17;100.00;50487.72;4992319;28;51887;-63
2022/02/12 07:41:40;;;;;;;;;14.25;13.00;;;;;-147.17;100.00;50473.94;4992566;28;51319;-61
2022/02/12 07:44:06;;;;;;;;;11.75;11.50;;;;;-147.17;100.00;50475.91;4992322;28;50953;-63
2022/02/12 07:46:31;;;;;;;;;16.25;15.75;;;;;-147.17;100.00;50462.13;4991861;28;51269;-63
2022/02/12 07:48:57;;;;;;;;;18.75;17.00;;;;;-147.17;100.00;50493.63;4992483;28;52245;-63
2022/02/12 07:51:22;;;;;;;;;16.00;15.00;;;;;-147.17;100.00;50495.59;4991877;28;51133;-63
2022/02/12 07:53:48;;;;;;;;;16.00;12.75;;;;;-147.17;100.00;50468.03;4992554;28;51223;-61
2022/02/12 07:56:13;;;;;;;;;17.50;15.00;;;;;-147.17;100.00;50470.00;4992107;28;51151;-62
2022/02/12 07:58:39;;;;;;;;;16.50;14.75;;;;;-147.17;100.00;50466.06;4992321;28;52676;-62
2022/02/12 08:01:04;;;;;;;;;13.75;12.25;;;;;-147.17;100.00;50485.75;4991683;28;51251;-62
2022/02/12 08:03:30;;;;;;;;;14.75;13.00;;;;;-147.17;100.00;50481.81;4959642;28;51243;-62
2022/02/12 08:05:55;;;;;;;;;16.00;15.00;;;;;-147.17;100.00;50483.78;4989777;28;51105;-62
2022/02/12 08:08:20;;;;;;;;;12.00;10.00;;;;;-147.17;100.00;50466.06;4991055;28;52196;-60
2022/02/12 08:13:29;;;;;;;;;7.25;7.25;;;;;-147.17;100.00;50489.69;4991817;28;51773;-62
2022/02/12 08:15:55;;;;;;;;;13.75;13.25;;;;;-147.17;100.00;50493.63;4991939;28;52682;-62
2022/02/12 08:18:20;;;;;;;;;13.25;13.25;;;;;-147.17;100.00;50517.25;4987706;28;51215;-61
2022/02/12 08:20:45;;;;;;;;;6.50;5.50;;;;;-147.17;100.00;50491.66;4984117;28;51131;-61
2022/02/12 08:23:11;;;;;;;;;15.50;13.00;;;;;-147.17;100.00;50475.91;4992488;28;51152;-62
2022/02/12 08:25:36;;;;;;;;;12.00;12.00;;;;;-147.17;100.00;50493.63;4991509;28;51157;-64
2022/02/12 08:28:02;;;;;;;;;13.25;12.25;;;;;-147.17;100.00;50503.47;4992704;28;51149;-62
2022/02/12 08:30:28;;;;;;;;;9.00;8.50;;;;;-147.17;100.00;50438.50;4992404;28;50979;-61
2022/02/12 08:32:53;;;;;;;;;13.75;13.00;;;;;-147.17;100.00;50458.19;4987352;28;51284;-61
2022/02/12 08:35:18;;;;;;;;;13.50;11.00;;;;;-147.17;100.00;50450.31;4990987;28;50964;-63
2022/02/12 08:37:45;;;;;;;;;12.75;10.00;;;;;-147.17;97.61;50568.44;4992292;28;51040;-62
2022/02/12 08:40:20;;;;;;;;;13.25;12.25;;;;;-147.17;97.23;50562.53;4979532;28;51117;-62
2022/02/12 08:42:48;;;;;;;;;12.50;12.25;;;;;-147.17;91.89;50659.00;4995298;28;50879;-62
2022/02/12 08:45:14;;;;;;;;;12.25;12.25;;;;;-147.17;89.00;50755.47;4995652;28;51207;-61
2022/02/12 08:47:39;;;;;;;;;13.25;12.50;;;;;-147.17;81.90;50832.25;4995842;28;50975;-62
2022/02/12 08:50:08;;;;;;;;;16.25;14.75;;;;;-147.17;77.85;50879.50;4995302;28;52094;-61
2022/02/12 08:52:33;;;;;;;;;16.00;15.00;;;;;-147.17;78.07;50875.56;4977631;28;51122;-61
2022/02/12 08:54:59;;;;;;;;;15.00;15.00;;;;;-147.17;77.87;50905.09;4995385;28;51007;-63
2022/02/12 08:57:24;;;;;;;;;17.00;16.25;;;;;-147.17;77.18;50928.72;4994352;28;52606;-62
2022/02/12 08:59:49;;;;;;;;;15.25;14.50;;;;;-147.17;71.60;51033.06;4995426;28;50993;-62
2022/02/12 09:02:15;;;;;;;;;17.00;15.00;;;;;-147.17;74.00;50975.97;4978009;28;51289;-62
2022/02/12 09:04:41;;;;;;;;;16.25;15.75;;;;;-147.17;70.00;51048.81;4995239;28;51125;-62
2022/02/12 09:07:07;;;;;;;;;17.25;15.25;;;;;-147.17;72.22;51080.31;4995263;28;50980;-62
2022/02/12 09:09:34;;;;;;;;;13.50;12.00;;;;;-147.17;73.00;51027.16;4997256;28;51078;-62
2022/02/12 09:11:59;;;;;;;;;16.00;15.50;;;;;-147.17;70.44;51168.91;4996449;28;51048;-62
2022/02/12 09:14:25;;;;;;;;;17.00;15.25;;;;;-147.17;67.46;51127.56;4974723;28;51319;-62
2022/02/12 09:16:51;;;;;;;;;16.25;16.00;;;;;-147.17;67.33;51141.34;4996554;28;51908;-62
2022/02/12 09:19:16;;;;;;;;;18.00;17.75;;;;;-147.17;67.18;51182.72;4994560;28;50933;-62
2022/02/12 09:21:42;;;;;;;;;17.00;15.50;;;;;-147.17;68.46;51190.59;4995693;28;51039;-62
2022/02/12 09:24:08;;;;;;;;;18.00;17.75;;;;;-147.17;67.32;51194.53;4995226;28;51378;-61
2022/02/12 09:26:33;;;;;;;;;17.67;16.00;;;;;-147.17;64.88;51261.47;4994610;28;50944;-63
2022/02/12 09:29:00;;;;;;;;;12.25;11.25;;;;;-147.17;64.85;51245.72;4995047;28;50980;-62
2022/02/12 09:31:26;;;;;;;;;18.33;16.33;;;;;-147.17;65.04;51233.91;4976676;28;51198;-62
2022/02/12 09:33:52;;;;;;;;;15.33;14.33;;;;;-147.17;64.63;51359.91;4995373;28;51079;-62
2022/02/12 09:36:18;;;;;;;;;15.00;14.33;;;;;-147.17;57.97;51387.47;4994667;28;51714;-61
2022/02/12 09:38:43;;;;;;;;;15.67;15.67;;;;;-147.17;58.46;51334.31;4994557;28;51217;-63
2022/02/12 09:41:12;;;;;;;;;14.00;13.33;;;;;-147.17;59.97;51346.13;4994759;28;51206;-61
2022/02/12 09:43:41;;;;;;;;;15.33;13.67;;;;;-147.17;58.96;51369.75;4994349;28;51233;-62
2022/02/12 09:46:27;;;;;;;;;12.33;12.33;;;;;-147.17;52.42;51371.72;4994664;28;51009;-63
2022/02/12 09:48:54;;;;;;;;;12.33;11.67;;;;;-147.17;49.52;51350.06;4988176;28;51361;-62
2022/02/12 09:51:19;;;;;;;;;13.00;13.00;;;;;-147.17;51.95;51279.19;4993378;28;51098;-62
2022/02/12 09:53:45;;;;;;;;;14.67;14.00;;;;;-147.17;52.50;51334.31;4994237;28;51049;-62
2022/02/12 09:56:10;;;;;;;;;15.33;14.00;;;;;-147.17;52.21;51281.16;4994420;28;51383;-61
2022/02/12 09:58:36;;;;;;;;;15.67;14.00;;;;;-147.17;51.88;51212.25;4994765;28;51132;-62
2022/02/12 10:01:02;;;;;;;;;11.00;11.00;;;;;-147.17;53.32;51153.16;4998100;28;51153;-61
2022/02/12 10:03:28;;;;;;;;;13.00;12.75;;;;;-147.17;53.86;51206.34;4992172;28;51070;-62
2022/02/12 10:05:54;;;;;;;;;11.00;11.00;;;;;-147.17;51.07;51229.97;4993715;28;51776;-62
2022/02/12 10:08:21;;;;;;;;;13.00;13.00;;;;;-147.17;53.84;51229.97;4993735;28;51050;-62
2022/02/12 10:10:49;;;;;;;;;12.00;11.33;;;;;-147.17;53.16;51188.63;4975997;28;51123;-62
2022/02/12 10:13:22;;;;;;;;;15.25;14.75;;;;;-147.17;53.65;51212.25;4993480;28;51375;-62
2022/02/12 10:15:56;;;;;;;;;11.67;11.67;;;;;-147.17;54.19;51204.38;4989080;28;53924;-62
2022/02/12 10:18:27;;;;;;;;;14.75;14.00;;;;;-147.17;53.86;51257.53;4990051;28;50889;-62
2022/02/12 10:20:55;;;;;;;;;13.75;13.25;;;;;-147.17;53.65;51352.03;4974196;28;50976;-63
2022/02/12 10:23:25;;;;;;;;;15.00;15.00;;;;;-147.17;52.11;51348.09;4994071;28;51383;-63
2022/02/12 10:26:08;;;;;;;;;14.25;14.25;;;;;-147.17;48.64;51393.38;4993370;28;52144;-62
2022/02/12 10:28:40;;;;;;;;;13.25;12.25;;;;;-147.17;48.75;51296.91;4994953;28;50896;-62
2022/02/12 10:31:06;;;;;;;;;13.75;11.25;;;;;-147.17;48.98;51176.78;4994377;28;51184;-63
2022/02/12 10:33:46;;;;;;;;;14.00;13.25;;;;;-147.17;49.83;51127.56;4993051;28;51289;-62
2022/02/12 10:36:24;;;;;;;;;14.25;14.00;;;;;-147.17;50.04;51090.16;4973064;28;53837;-62
2022/02/12 10:38:51;;;;;;;;;10.75;10.25;;;;;-147.17;50.32;51031.09;4968498;28;51024;-63
2022/02/12 10:41:19;;;;;;;;;13.25;11.00;;;;;-147.17;50.62;50997.63;4995274;28;51138;-61
2022/02/12 10:43:49;;;;;;;;;13.50;12.50;;;;;-147.17;50.27;50972.03;4976237;28;51473;-61
2022/02/12 10:46:15;;;;;;;;;12.00;11.00;;;;;-147.17;51.14;50911.00;4993983;28;51766;-62
2022/02/12 10:48:41;;;;;;;;;12.50;11.75;;;;;-147.17;51.95;50877.53;4993559;28;51027;-63
2022/02/12 10:51:14;;;;;;;;;12.00;10.00;;;;;-147.17;53.60;50928.72;4993403;28;51158;-62
2022/02/12 10:53:58;;;;;;;;;10.00;9.50;;;;;-147.17;56.14;50777.13;4993818;28;50873;-61
2022/02/12 10:56:26;;;;;;;;;14.00;12.00;;;;;-147.17;57.86;50895.25;4993318;28;50928;-63
2022/02/12 10:58:52;;;;;;;;;12.50;11.50;;;;;-147.17;52.48;51068.50;4993881;28;50999;-62
2022/02/12 11:01:19;;;;;;;;;9.50;9.25;;;;;-147.17;52.31;51107.88;4993477;28;50932;-61
2022/02/12 11:03:45;;;;;;;;;12.00;11.00;;;;;-147.17;54.02;51143.31;4992978;28;51196;-62
2022/02/12 11:06:13;;;;;;;;;11.50;11.50;;;;;-147.17;54.48;51283.13;4993044;28;51704;-61